Cross Plains, IN (47017)

7:35 PM EDT on July 07, 2015 (GMT -0400)
APRSWXNET | | Change Station
CLOSE
Current Station
Personal Weather Station
Location: Versailles, IN
Elevation: 961 ft
Nearby Weather Stations

Elev 961 ft 39.07 °N, 85.25 °W | Updated 16 minutes ago

Overcast
Overcast
71 °F
Feels Like 71 °F
N
8
Wind Variable Wind from ESE
Gusts 15.0 mph

Today
High -- | Low -- °F
--% Chance of Precip.
Yesterday
High -- | Low -- °F
Precip. -- in
6:22 AM 9:09 PM
Waning Gibbous, 60% visible
Pressure 29.94 in
Visibility 4.0 miles
Clouds Scattered Clouds 2000 ft
Mostly Cloudy 4400 ft
Overcast 10000 ft
Dew Point 69 °F
Humidity 95%
Rainfall in
Snow Depth Not available.
UV 1 out of 12
Pollen 1.60 out of 12
Air Quality Not available.
Flu Activity Not available.
METAR KCVG 072252Z 25009KT 4SM -RA BR SCT020 BKN044 OVC100 23/22 A2997 RMK AO2 VIS 2 36R SLP139 P0005 T02330217

More Conditions Fewer Conditions

Pressure 29.94 in
Visibility 4.0 miles
Clouds Scattered Clouds 2000 ft
Mostly Cloudy 4400 ft
Overcast 10000 ft
Dew Point 69 °F
Humidity 95%
Rainfall in
Snow Depth Not available.
UV 1 out of 12
Pollen 1.60 out of 12
Air Quality Not available.
Flu Activity Not available.
METAR KCVG 072252Z 25009KT 4SM -RA BR SCT020 BKN044 OVC100 23/22 A2997 RMK AO2 VIS 2 36R SLP139 P0005 T02330217

More Conditions Fewer Conditions

10-Day Weather Forecast

×

Almanac

Astronomy

Jul. 07, 2015 Rise Set
Actual Time
Civil Twilight
Nautical Twilight
Astronomical Twilight
Moon
Length of Visible Light
Length of Day
Tomorrow will be .
, % of the Moon is Illuminated

Today's Extremes

State Highs State Lows

Community

WunderPhotos

Upload Photos

1,835,961 photos uploaded!

WunderBlogs® & News

Nearby

Air Quality

  Air Quality AQ Index Pollutant
Not available.

Snow Depth

Station Depth Elevation

Earthquake Activity

City Distance Mag. Time & Date
Minimum magnitude displayed is 2.5.

Coastal Water Temperatures

Place Temperature

Stations

Nearby Weather Stations

Station Location Temp. Windchill Dew Point Humidity Wind Precip. Elev Updated Type